Arlington, Indiana
Current Conditions -  °F | °C
As of 6:53 PM on Friday 24 Oct 2014 (Local Time) from KGEZ Reporting Station
Clear Clear  
Wind Chill: 16°   Ceiling: Unl
Heat Index: 16°   Visibility: 10mi
Dew Point:   Wind: 5mph
Humidity: 64%   Direction: 200°SSW
Pressure: 30.02"   Gusts: NA
Location:  39.64°N, 85.57°W
Report Text: KGEZ 242253Z AUTO 20004KT 10SM CLR 16/09 A3002 RMK AO2 SLP167 T01610094
Loading
Personal Weather Stations






























Interactive Weather Map
Tropical Storm Tracking
New forecast layout! Learn more

10-Day Weather Forecast

Advertisements
Track Severe Weather on mobile